Time;durP1;ratioP1;P1;durP2;ratioP2;P2;SDS_P1;SDS_P2;PMS_P1;PMS_P2;Temp;Humidity;BMP_temperature;BMP_pressure;BME280_temperature;BME280_humidity;BME280_pressure;Samples;Min_cycle;Max_cycle;Signal;HPM_P1;HPM_P2
2022/04/03 04:01:36;;;;;;;3.58;3.38;;;0.30;99.90;;;;;;5376929;23;20572;-67
2022/04/03 04:04:03;;;;;;;3.05;2.85;;;0.20;99.90;;;;;;4935707;29;20996;-67
2022/04/03 04:06:30;;;;;;;3.55;3.38;;;0.20;99.90;;;;;;4934264;29;20211;-67
2022/04/03 04:08:57;;;;;;;3.10;3.00;;;0.20;99.90;;;;;;4941694;29;20297;-67
2022/04/03 04:11:23;;;;;;;3.67;3.00;;;0.10;99.90;;;;;;4942035;29;20229;-68
2022/04/03 04:13:50;;;;;;;3.38;3.17;;;0.10;99.90;;;;;;4931002;29;20277;-67
2022/04/03 04:16:17;;;;;;;4.43;3.60;;;0.00;99.90;;;;;;4925827;29;20542;-66
2022/04/03 04:18:45;;;;;;;3.08;2.92;;;-0.10;99.90;;;;;;4951352;28;20205;-67
2022/04/03 04:21:12;;;;;;;2.50;2.40;;;-0.10;99.90;;;;;;4944213;28;20260;-67
2022/04/03 04:23:38;;;;;;;5.18;3.88;;;-0.10;99.90;;;;;;4945531;29;20209;-68
2022/04/03 04:26:05;;;;;;;3.63;3.42;;;-0.20;99.90;;;;;;4941326;28;20553;-67
2022/04/03 04:28:32;;;;;;;3.42;3.10;;;-0.20;99.90;;;;;;4948447;29;20272;-66
2022/04/03 04:30:58;;;;;;;3.50;3.30;;;-0.30;99.90;;;;;;4929401;29;20226;-67
2022/04/03 04:33:26;;;;;;;4.57;3.47;;;-0.30;99.90;;;;;;4937955;29;20623;-67
2022/04/03 04:35:54;;;;;;;3.50;3.20;;;-0.30;99.90;;;;;;4935848;29;20253;-68
2022/04/03 04:38:20;;;;;;;4.30;3.13;;;-0.30;99.90;;;;;;4937534;28;20206;-68
2022/04/03 04:40:47;;;;;;;2.78;2.67;;;-0.40;99.90;;;;;;4936984;29;20234;-67
2022/04/03 04:43:14;;;;;;;4.55;3.33;;;-0.40;99.90;;;;;;4937117;29;20224;-67
2022/04/03 04:45:41;;;;;;;4.93;3.70;;;-0.40;99.90;;;;;;4942039;29;20569;-68
2022/04/03 04:48:08;;;;;;;2.97;2.78;;;-0.40;99.90;;;;;;4938214;29;20344;-67
2022/04/03 04:50:34;;;;;;;5.00;3.65;;;-0.50;99.90;;;;;;4938125;29;20237;-67
2022/04/03 04:53:02;;;;;;;3.38;2.92;;;-0.50;99.90;;;;;;4941479;23;20226;-70
2022/04/03 04:55:29;;;;;;;3.67;3.40;;;-0.50;99.90;;;;;;4916171;29;20632;-70
2022/04/03 04:57:58;;;;;;;3.35;3.25;;;-0.50;99.90;;;;;;4914692;29;20209;-70
2022/04/03 05:00:26;;;;;;;2.65;2.55;;;-0.50;99.90;;;;;;4921488;29;20552;-70
2022/04/03 05:02:53;;;;;;;3.92;3.15;;;-0.50;99.90;;;;;;4924262;29;20371;-71
2022/04/03 05:05:22;;;;;;;3.80;3.50;;;-0.50;99.90;;;;;;4915027;29;20214;-70
2022/04/03 05:07:52;;;;;;;3.42;3.33;;;-0.50;99.90;;;;;;4913612;29;20226;-70
2022/04/03 05:10:21;;;;;;;3.70;3.13;;;-0.40;99.90;;;;;;4915711;29;20282;-70
2022/04/03 05:12:48;;;;;;;3.35;3.03;;;-0.40;99.90;;;;;;4912287;29;20258;-70
2022/04/03 05:15:16;;;;;;;7.88;3.40;;;-0.30;99.90;;;;;;4915896;29;20207;-70
2022/04/03 05:17:44;;;;;;;4.00;3.35;;;-0.30;99.90;;;;;;4913306;29;20231;-70
2022/04/03 05:20:12;;;;;;;3.50;3.20;;;-0.30;99.90;;;;;;4916603;29;20258;-70
2022/04/03 05:22:39;;;;;;;3.83;3.55;;;-0.30;99.90;;;;;;4914049;29;20226;-70
2022/04/03 05:25:08;;;;;;;3.97;3.75;;;-0.20;99.90;;;;;;4916032;29;20206;-69
2022/04/03 05:27:36;;;;;;;5.63;3.40;;;-0.10;99.90;;;;;;4908990;29;20221;-70
2022/04/03 05:30:04;;;;;;;3.67;3.40;;;0.10;99.90;;;;;;4918633;29;20266;-71
2022/04/03 05:32:32;;;;;;;3.92;2.55;;;0.30;99.90;;;;;;4912050;29;20330;-69
2022/04/03 05:35:00;;;;;;;4.18;3.97;;;0.40;99.90;;;;;;4913888;29;20233;-69
2022/04/03 05:37:27;;;;;;;5.07;3.47;;;0.60;99.90;;;;;;4911871;29;20320;-70
2022/04/03 05:39:54;;;;;;;4.93;3.05;;;0.90;99.90;;;;;;4913327;29;20289;-71
2022/04/03 05:42:21;;;;;;;3.70;3.50;;;1.30;99.90;;;;;;4914319;29;20219;-68
2022/04/03 05:44:49;;;;;;;3.50;3.30;;;1.40;99.90;;;;;;4916650;29;20567;-71
2022/04/03 05:47:17;;;;;;;4.38;3.55;;;1.30;99.90;;;;;;4914819;29;20210;-71
2022/04/03 05:49:44;;;;;;;4.47;4.07;;;1.20;99.90;;;;;;4909836;29;20262;-68
2022/04/03 05:52:11;;;;;;;3.90;3.60;;;1.10;99.90;;;;;;4912619;29;20234;-70
2022/04/03 05:54:38;;;;;;;3.92;3.67;;;1.00;99.90;;;;;;4909664;29;20229;-69
2022/04/03 05:57:05;;;;;;;5.13;4.57;;;1.00;99.90;;;;;;4896577;29;20318;-70
2022/04/03 05:59:32;;;;;;;4.28;3.97;;;0.90;99.90;;;;;;4903909;29;20210;-69
2022/04/03 06:02:00;;;;;;;3.65;3.33;;;0.90;99.90;;;;;;4907587;29;20883;-70
2022/04/03 06:04:27;;;;;;;12.52;11.48;;;0.90;99.90;;;;;;4910761;29;20210;-72
2022/04/03 06:06:53;;;;;;;4.25;3.95;;;0.90;99.90;;;;;;4915412;29;20209;-69
2022/04/03 06:09:20;;;;;;;3.22;3.13;;;1.00;99.90;;;;;;4912702;29;20692;-70
2022/04/03 06:11:47;;;;;;;4.20;3.22;;;1.00;99.90;;;;;;4914423;29;20215;-71
2022/04/03 06:14:13;;;;;;;3.80;3.60;;;1.00;99.90;;;;;;4909329;29;20278;-69
2022/04/03 06:16:40;;;;;;;4.65;4.18;;;1.10;99.90;;;;;;4914815;29;20222;-71
2022/04/03 06:19:08;;;;;;;4.07;3.67;;;1.10;99.90;;;;;;4912715;29;20219;-70
2022/04/03 06:21:35;;;;;;;4.57;4.03;;;1.20;99.90;;;;;;4914284;29;20226;-71
2022/04/03 06:24:01;;;;;;;10.15;6.43;;;1.20;99.90;;;;;;4911568;29;20278;-69
2022/04/03 06:26:28;;;;;;;8.02;6.45;;;1.20;99.90;;;;;;4913033;29;20215;-70
2022/04/03 06:28:55;;;;;;;8.85;6.75;;;1.30;99.90;;;;;;4914728;29;20203;-68
2022/04/03 06:31:21;;;;;;;4.47;4.00;;;1.40;99.90;;;;;;4911561;29;20210;-68
2022/04/03 06:33:48;;;;;;;3.90;3.60;;;1.40;99.90;;;;;;4902597;29;20374;-68
2022/04/03 06:36:16;;;;;;;3.55;3.25;;;1.50;99.90;;;;;;4911529;29;20213;-69
2022/04/03 06:38:43;;;;;;;4.18;3.60;;;1.60;99.90;;;;;;4914701;29;20203;-68
2022/04/03 06:41:09;;;;;;;3.03;2.65;;;1.70;99.90;;;;;;4912165;29;20306;-69
2022/04/03 06:43:36;;;;;;;3.75;3.53;;;1.80;99.90;;;;;;4913323;29;20230;-70
2022/04/03 06:46:03;;;;;;;2.88;2.70;;;1.90;99.90;;;;;;4906419;29;20210;-68
2022/04/03 06:48:29;;;;;;;3.85;3.47;;;2.10;99.90;;;;;;4905675;29;20211;-68
2022/04/03 06:50:56;;;;;;;3.20;2.90;;;2.30;99.90;;;;;;4913683;29;20207;-68
2022/04/03 06:53:25;;;;;;;3.35;3.05;;;2.50;99.90;;;;;;4911806;29;20242;-69
2022/04/03 06:55:51;;;;;;;3.45;3.13;;;2.60;99.90;;;;;;4914627;29;20218;-68
2022/04/03 06:58:18;;;;;;;4.15;3.10;;;2.80;99.90;;;;;;4911344;29;20293;-69
2022/04/03 07:00:44;;;;;;;4.22;3.00;;;2.80;99.90;;;;;;4913708;29;20599;-68
2022/04/03 07:03:11;;;;;;;3.47;3.20;;;2.90;99.90;;;;;;4915844;29;20233;-69
2022/04/03 07:05:38;;;;;;;3.50;3.30;;;3.00;99.90;;;;;;4907385;29;20278;-68
2022/04/03 07:08:05;;;;;;;2.80;2.80;;;3.10;99.90;;;;;;4916564;29;20796;-67
2022/04/03 07:10:33;;;;;;;10.13;6.25;;;3.30;99.90;;;;;;4914305;29;20262;-68
2022/04/03 07:13:00;;;;;;;3.00;2.90;;;3.60;99.90;;;;;;4914438;29;20241;-69
2022/04/03 07:15:27;;;;;;;6.43;6.00;;;3.80;99.90;;;;;;4913895;29;20672;-67
2022/04/03 07:17:53;;;;;;;2.90;2.80;;;3.90;99.90;;;;;;4919628;29;20239;-68
2022/04/03 07:20:20;;;;;;;3.83;3.58;;;4.10;99.90;;;;;;4910011;29;20218;-68
2022/04/03 07:22:47;;;;;;;2.80;2.67;;;4.20;99.90;;;;;;4913837;29;20227;-69
2022/04/03 07:25:14;;;;;;;2.40;2.30;;;4.30;99.90;;;;;;4915144;29;20207;-68
2022/04/03 07:27:43;;;;;;;2.80;2.80;;;4.50;99.90;;;;;;4919933;29;20598;-69
2022/04/03 07:30:12;;;;;;;2.45;2.35;;;4.70;99.90;;;;;;4912378;29;20203;-68
2022/04/03 07:32:39;;;;;;;3.88;3.60;;;4.90;99.90;;;;;;4914696;29;20294;-68
2022/04/03 07:35:07;;;;;;;3.38;3.17;;;5.00;99.90;;;;;;4910603;29;20210;-69
2022/04/03 07:37:34;;;;;;;2.75;2.65;;;5.10;99.90;;;;;;4914016;29;20239;-69
2022/04/03 07:40:01;;;;;;;3.10;2.90;;;5.00;99.90;;;;;;4915808;29;20624;-69
2022/04/03 07:42:27;;;;;;;2.60;2.60;;;5.10;99.90;;;;;;4916790;29;20304;-69
2022/04/03 07:44:55;;;;;;;7.53;6.82;;;5.10;99.90;;;;;;4917908;29;20682;-69
2022/04/03 07:47:22;;;;;;;4.28;3.88;;;5.10;99.90;;;;;;4916389;29;20667;-69
2022/04/03 07:49:49;;;;;;;3.63;3.45;;;5.00;99.90;;;;;;4917101;29;20282;-69
2022/04/03 07:52:16;;;;;;;4.35;4.05;;;5.00;99.90;;;;;;4906156;29;20234;-69
2022/04/03 07:54:42;;;;;;;3.00;2.80;;;5.00;99.90;;;;;;4915361;29;20258;-68
2022/04/03 07:57:10;;;;;;;3.05;2.95;;;4.90;99.90;;;;;;4912774;29;20735;-69
2022/04/03 07:59:37;;;;;;;2.70;2.63;;;5.00;99.90;;;;;;4910797;29;20559;-68
2022/04/03 08:02:05;;;;;;;3.28;3.08;;;5.10;99.90;;;;;;4917095;29;20230;-68
2022/04/03 08:04:32;;;;;;;2.88;2.60;;;5.30;99.90;;;;;;4913972;29;20230;-69
2022/04/03 08:06:59;;;;;;;2.00;1.90;;;5.40;99.90;;;;;;4916671;29;20206;-68
2022/04/03 08:09:25;;;;;;;2.30;2.15;;;5.40;99.90;;;;;;4918675;29;20691;-69
2022/04/03 08:11:52;;;;;;;2.00;2.00;;;5.40;99.90;;;;;;4915937;29;20239;-68
2022/04/03 08:14:19;;;;;;;1.70;1.65;;;5.50;99.90;;;;;;4914833;29;20215;-70
2022/04/03 08:16:46;;;;;;;4.78;2.50;;;5.50;99.90;;;;;;4916549;29;20203;-69
2022/04/03 08:19:14;;;;;;;2.50;2.28;;;5.50;99.90;;;;;;4912669;29;20206;-69
2022/04/03 08:21:41;;;;;;;2.25;2.15;;;5.50;99.90;;;;;;4908456;29;20267;-69
2022/04/03 08:24:08;;;;;;;2.40;2.30;;;5.60;99.90;;;;;;4914586;29;20207;-69
2022/04/03 08:26:35;;;;;;;2.10;1.55;;;5.70;99.90;;;;;;4915817;29;20652;-69
2022/04/03 08:29:01;;;;;;;1.95;1.85;;;5.80;99.90;;;;;;4913413;29;20211;-70
2022/04/03 08:31:28;;;;;;;2.78;2.65;;;5.90;99.90;;;;;;4915669;29;20214;-69
2022/04/03 08:33:55;;;;;;;2.55;2.45;;;5.90;99.90;;;;;;4915689;29;20313;-69
2022/04/03 08:36:23;;;;;;;2.75;2.58;;;6.00;99.90;;;;;;4916684;29;20206;-69
2022/04/03 08:38:51;;;;;;;1.48;1.48;;;6.20;99.90;;;;;;4910680;29;20230;-70
2022/04/03 08:41:18;;;;;;;1.70;1.60;;;6.30;99.90;;;;;;4904408;29;20250;-69
2022/04/03 08:43:47;;;;;;;3.33;1.45;;;6.40;99.90;;;;;;4914001;29;20364;-69
2022/04/03 08:46:14;;;;;;;1.83;1.73;;;6.40;99.90;;;;;;4915241;29;20649;-68
2022/04/03 08:48:44;;;;;;;1.90;1.90;;;6.40;99.90;;;;;;4908529;29;20252;-69
2022/04/03 08:51:11;;;;;;;1.15;1.00;;;6.50;99.90;;;;;;4913840;29;20202;-69
2022/04/03 08:53:40;;;;;;;1.77;1.67;;;6.50;99.90;;;;;;4914797;29;20234;-69
2022/04/03 08:56:07;;;;;;;1.50;1.40;;;6.50;99.90;;;;;;4915043;29;20298;-69
2022/04/03 08:58:34;;;;;;;2.05;1.95;;;6.60;99.90;;;;;;4912754;29;20234;-69
2022/04/03 09:01:01;;;;;;;1.48;1.48;;;6.50;99.90;;;;;;4909425;29;20254;-69
2022/04/03 09:03:28;;;;;;;1.40;1.40;;;6.50;99.90;;;;;;4905681;29;20242;-68
2022/04/03 09:06:11;;;;;;;1.63;1.63;;;6.40;99.90;;;;;;4908309;29;20211;-68
2022/04/03 09:08:40;;;;;;;1.85;1.75;;;6.20;99.90;;;;;;4913011;29;20219;-68
2022/04/03 09:11:07;;;;;;;1.60;1.52;;;6.20;99.90;;;;;;4914640;29;20207;-68
2022/04/03 09:13:34;;;;;;;5.30;4.10;;;6.20;99.90;;;;;;4900044;29;20244;-68
2022/04/03 09:16:01;;;;;;;1.55;1.55;;;6.10;99.90;;;;;;4911467;29;20564;-68
2022/04/03 09:18:44;;;;;;;2.75;2.55;;;6.10;99.90;;;;;;4907796;29;20226;-69
2022/04/03 09:21:18;;;;;;;4.80;4.35;;;6.20;99.90;;;;;;4905010;29;20219;-69
2022/04/03 09:24:00;;;;;;;3.22;1.98;;;6.20;99.90;;;;;;4904489;29;20229;-69
2022/04/03 09:26:27;;;;;;;2.20;2.10;;;6.30;99.90;;;;;;4915383;29;20684;-69
2022/04/03 09:29:10;;;;;;;2.63;2.53;;;6.50;99.90;;;;;;4908741;29;20202;-68
2022/04/03 09:31:37;;;;;;;1.67;1.67;;;6.60;99.90;;;;;;4906090;29;20262;-68
2022/04/03 09:34:06;;;;;;;2.65;2.45;;;6.80;99.90;;;;;;4906173;29;20231;-68
2022/04/03 09:36:34;;;;;;;2.55;2.35;;;6.90;99.90;;;;;;4910584;29;20584;-68
2022/04/03 09:39:24;;;;;;;2.50;2.30;;;7.20;99.90;;;;;;4905581;29;20222;-69
2022/04/03 09:42:00;;;;;;;2.35;1.70;;;7.30;99.90;;;;;;4909998;29;20235;-69
2022/04/03 09:44:32;;;;;;;2.88;2.70;;;7.40;99.90;;;;;;4905086;29;20297;-69
2022/04/03 09:47:16;;;;;;;4.47;2.88;;;7.40;99.90;;;;;;4900803;29;20270;-68
2022/04/03 09:49:45;;;;;;;2.40;2.20;;;7.30;99.90;;;;;;4904191;29;20684;-68
2022/04/03 09:52:11;;;;;;;8.82;4.00;;;7.20;99.90;;;;;;4903672;29;20329;-68
2022/04/03 09:54:40;;;;;;;20.10;7.45;;;6.90;99.90;;;;;;4910142;29;20209;-68
2022/04/03 09:57:19;;;;;;;5.90;3.50;;;6.80;99.90;;;;;;4913113;29;20215;-68
2022/04/03 09:59:51;;;;;;;13.43;6.57;;;6.70;99.90;;;;;;4907217;29;20294;-68
2022/04/03 10:02:18;;;;;;;8.82;4.88;;;6.70;99.90;;;;;;4901382;29;20231;-68
2022/04/03 10:04:46;;;;;;;5.38;3.10;;;6.80;99.90;;;;;;4911995;29;20215;-68
2022/04/03 10:07:14;;;;;;;7.70;6.07;;;6.80;99.90;;;;;;4906871;29;20219;-68
2022/04/03 10:09:47;;;;;;;18.95;7.20;;;6.90;99.90;;;;;;4909989;29;20215;-69
2022/04/03 10:12:17;;;;;;;19.58;9.18;;;6.90;99.90;;;;;;4908872;29;20226;-67
2022/04/03 10:14:44;;;;;;;16.50;6.65;;;7.00;99.90;;;;;;4909806;29;20297;-67
2022/04/03 10:17:11;;;;;;;16.08;7.57;;;7.20;99.90;;;;;;4914617;29;20624;-68
2022/04/03 10:19:38;;;;;;;7.22;4.25;;;7.20;99.90;;;;;;4901271;29;20646;-68
2022/04/03 10:22:09;;;;;;;25.83;13.35;;;7.20;99.90;;;;;;4904858;29;20219;-70
2022/04/03 10:24:38;;;;;;;12.15;8.70;;;7.20;99.90;;;;;;4905775;29;20655;-70
2022/04/03 10:27:14;;;;;;;3.00;2.80;;;7.20;99.90;;;;;;4914539;29;20217;-69
2022/04/03 10:29:43;;;;;;;2.42;2.42;;;7.20;99.90;;;;;;4907418;29;20210;-68
2022/04/03 10:32:10;;;;;;;2.40;2.30;;;7.00;99.90;;;;;;4905958;29;20230;-68
2022/04/03 10:34:46;;;;;;;2.15;2.05;;;7.10;99.90;;;;;;4912128;29;20206;-70
2022/04/03 10:37:27;;;;;;;2.38;2.22;;;7.10;99.90;;;;;;4912362;29;20254;-69
2022/04/03 10:39:55;;;;;;;2.70;2.42;;;7.20;99.90;;;;;;4906399;29;20215;-68
2022/04/03 10:42:26;;;;;;;3.22;2.45;;;7.40;99.90;;;;;;4899821;29;20246;-69
2022/04/03 10:45:18;;;;;;;2.38;2.28;;;7.50;99.90;;;;;;4903394;29;20210;-70
2022/04/03 10:47:46;;;;;;;2.13;2.03;;;7.70;99.90;;;;;;4904828;29;20203;-69
2022/04/03 10:50:14;;;;;;;1.95;1.67;;;7.90;99.90;;;;;;4910257;29;20221;-69
2022/04/03 10:52:55;;;;;;;3.53;2.70;;;8.00;99.90;;;;;;4915396;29;20243;-69
2022/04/03 10:55:26;;;;;;;2.17;2.10;;;8.00;99.90;;;;;;4909207;29;20727;-70
2022/04/03 10:57:56;;;;;;;6.07;2.40;;;7.80;99.90;;;;;;4911833;29;20309;-69
2022/04/03 11:00:37;;;;;;;1.65;1.55;;;7.80;99.90;;;;;;4913873;29;20248;-69
2022/04/03 11:03:32;;;;;;;3.22;3.03;;;7.80;99.90;;;;;;4908377;29;20247;-69
2022/04/03 11:06:22;;;;;;;1.60;1.60;;;8.00;99.90;;;;;;4907906;29;20298;-68
2022/04/03 11:09:24;;;;;;;2.28;2.05;;;8.00;99.90;;;;;;4910217;29;20632;-68
2022/04/03 11:12:01;;;;;;;1.88;1.88;;;7.90;99.90;;;;;;4903792;29;20645;-68
2022/04/03 11:14:59;;;;;;;4.47;3.92;;;7.90;99.90;;;;;;4905941;29;20206;-68
2022/04/03 11:17:49;;;;;;;2.30;2.30;;;8.00;99.90;;;;;;4915180;29;21045;-67
2022/04/03 11:20:33;;;;;;;2.22;2.13;;;8.00;99.90;;;;;;4918846;29;20207;-68
2022/04/03 11:23:01;;;;;;;2.38;2.20;;;8.10;99.90;;;;;;4937624;23;20225;-68
2022/04/03 11:25:28;;;;;;;3.08;2.95;;;8.20;99.90;;;;;;4931648;29;20213;-68
2022/04/03 11:27:55;;;;;;;2.80;2.60;;;8.30;99.90;;;;;;4935014;29;20202;-68
2022/04/03 11:30:23;;;;;;;1.45;1.40;;;8.30;99.90;;;;;;4942528;29;20264;-68
2022/04/03 11:32:51;;;;;;;1.50;1.50;;;8.10;99.90;;;;;;4927759;29;20570;-68
2022/04/03 11:35:33;;;;;;;1.50;1.50;;;7.90;99.90;;;;;;4928144;29;20226;-68
2022/04/03 11:37:59;;;;;;;1.67;1.40;;;7.80;99.90;;;;;;4933018;29;20234;-68
2022/04/03 11:40:26;;;;;;;1.48;1.38;;;7.70;99.90;;;;;;4931764;29;20218;-68
2022/04/03 11:43:10;;;;;;;1.73;1.73;;;7.60;99.90;;;;;;4929530;29;20258;-68
2022/04/03 11:45:38;;;;;;;1.80;1.70;;;7.60;99.90;;;;;;4925537;29;20202;-68
2022/04/03 11:48:19;;;;;;;2.70;2.60;;;7.60;99.90;;;;;;4932018;28;20214;-68
2022/04/03 11:50:46;;;;;;;2.05;1.95;;;7.80;99.90;;;;;;4924421;29;20607;-68
2022/04/03 11:53:13;;;;;;;1.85;1.85;;;8.10;99.90;;;;;;4934479;29;20237;-68
2022/04/03 11:55:40;;;;;;;1.85;1.80;;;8.20;99.90;;;;;;4927592;29;20206;-67
2022/04/03 11:58:07;;;;;;;2.03;1.95;;;8.20;99.90;;;;;;4929660;29;20560;-68
2022/04/03 12:00:34;;;;;;;2.60;2.45;;;8.30;99.90;;;;;;4928093;29;20734;-68
2022/04/03 12:03:03;;;;;;;2.67;2.58;;;8.30;99.90;;;;;;4929745;29;20740;-68
2022/04/03 12:05:30;;;;;;;2.58;1.80;;;8.30;99.90;;;;;;4932388;29;20225;-68
2022/04/03 12:08:00;;;;;;;2.20;2.03;;;8.20;99.90;;;;;;4935585;29;20266;-68
2022/04/03 12:10:27;;;;;;;4.40;3.30;;;8.20;99.90;;;;;;4929418;29;20213;-68
2022/04/03 12:12:55;;;;;;;3.63;3.38;;;8.30;99.90;;;;;;4930601;29;20297;-68
2022/04/03 12:15:23;;;;;;;2.22;1.80;;;8.30;99.90;;;;;;4930645;29;20306;-68
2022/04/03 12:17:55;;;;;;;2.15;2.00;;;8.30;99.90;;;;;;4928166;28;20241;-68
2022/04/03 12:20:23;;;;;;;2.35;2.25;;;8.30;99.90;;;;;;4931672;29;20561;-67
2022/04/03 12:22:50;;;;;;;4.32;1.77;;;8.40;99.90;;;;;;4928854;28;20337;-68
2022/04/03 12:25:17;;;;;;;1.55;1.50;;;8.30;99.90;;;;;;4949067;29;20561;-68
2022/04/03 12:27:44;;;;;;;1.10;1.10;;;8.20;99.90;;;;;;4930003;28;20212;-68
2022/04/03 12:30:12;;;;;;;1.48;1.38;;;8.20;99.90;;;;;;4944361;29;20213;-68
2022/04/03 12:32:40;;;;;;;1.60;1.50;;;8.00;99.90;;;;;;4925269;29;20314;-68
2022/04/03 12:35:09;;;;;;;2.00;1.90;;;7.80;99.90;;;;;;4940381;29;20638;-68
2022/04/03 12:37:40;;;;;;;1.73;1.63;;;7.90;99.90;;;;;;4944902;28;20273;-68
2022/04/03 12:40:08;;;;;;;2.53;2.33;;;7.80;99.90;;;;;;4942133;28;20265;-68
2022/04/03 12:42:36;;;;;;;0.90;0.90;;;7.80;99.90;;;;;;4944444;29;20253;-68
2022/04/03 12:45:06;;;;;;;2.75;2.45;;;7.70;99.90;;;;;;4954276;28;20232;-68
2022/04/03 12:47:36;;;;;;;0.98;0.98;;;7.80;99.90;;;;;;4936553;28;20252;-68
2022/04/03 12:50:24;;;;;;;1.25;1.15;;;7.80;99.90;;;;;;4933195;28;20272;-68
2022/04/03 12:52:56;;;;;;;0.98;0.98;;;7.70;99.90;;;;;;4934917;29;20325;-68
2022/04/03 12:55:38;;;;;;;1.20;1.20;;;7.70;99.90;;;;;;4952118;29;20209;-68
2022/04/03 12:58:24;;;;;;;0.50;0.50;;;7.60;99.90;;;;;;4915857;29;20732;-68
2022/04/03 13:00:54;;;;;;;0.90;0.90;;;7.60;99.90;;;;;;4915446;29;20302;-68
2022/04/03 13:03:31;;;;;;;0.73;0.73;;;7.60;99.90;;;;;;4915554;29;20672;-68
2022/04/03 13:06:00;;;;;;;1.20;1.10;;;7.70;99.90;;;;;;4916155;29;20203;-68
2022/04/03 13:08:28;;;;;;;1.17;1.17;;;7.80;99.90;;;;;;4919658;29;20219;-68
2022/04/03 13:10:57;;;;;;;2.40;1.90;;;7.80;99.90;;;;;;4942358;29;20276;-68
2022/04/03 13:13:26;;;;;;;1.50;1.30;;;8.00;99.90;;;;;;4952750;28;20232;-68
2022/04/03 13:15:53;;;;;;;0.93;0.93;;;8.10;99.90;;;;;;4933963;29;20269;-68
2022/04/03 13:18:20;;;;;;;0.80;0.80;;;8.20;99.90;;;;;;4934240;29;20230;-68
2022/04/03 13:20:51;;;;;;;1.25;1.17;;;8.30;99.90;;;;;;4934569;29;20264;-68
2022/04/03 13:23:18;;;;;;;4.60;3.25;;;8.20;99.90;;;;;;4934390;29;20309;-70
2022/04/03 13:25:47;;;;;;;2.95;1.33;;;8.40;99.90;;;;;;4934304;29;20206;-68
2022/04/03 13:28:14;;;;;;;1.92;1.30;;;8.40;99.90;;;;;;4915654;29;20219;-68
2022/04/03 13:30:42;;;;;;;7.47;6.70;;;8.50;99.90;;;;;;4916465;29;20286;-68
2022/04/03 13:33:09;;;;;;;3.35;1.48;;;8.50;99.90;;;;;;4945328;29;20316;-68
2022/04/03 13:35:37;;;;;;;3.40;0.80;;;8.40;99.90;;;;;;4953556;29;20205;-68
2022/04/03 13:38:05;;;;;;;1.35;1.35;;;8.30;99.90;;;;;;4934134;29;20292;-68
2022/04/03 13:40:32;;;;;;;2.58;1.00;;;8.40;99.90;;;;;;4926615;29;20320;-68
2022/04/03 13:43:02;;;;;;;1.25;1.23;;;8.70;99.90;;;;;;4933804;29;20633;-68
2022/04/03 13:48:09;;;;;;;1.00;1.00;;;8.90;99.90;;;;;;4915100;29;20233;-68
2022/04/03 13:50:36;;;;;;;0.90;0.90;;;8.70;99.90;;;;;;4914868;29;20207;-68
2022/04/03 13:53:03;;;;;;;1.30;0.93;;;8.20;99.90;;;;;;4924562;29;20278;-68
2022/04/03 13:55:30;;;;;;;1.52;1.40;;;7.60;99.90;;;;;;4949293;29;20229;-68
2022/04/03 13:57:57;;;;;;;1.35;1.35;;;7.20;99.90;;;;;;4934439;29;20210;-68
2022/04/03 14:00:25;;;;;;;1.25;1.25;;;7.10;99.90;;;;;;4915603;29;20597;-68
2022/04/03 14:02:52;;;;;;;1.50;1.50;;;7.00;99.90;;;;;;4914517;29;20226;-68
2022/04/03 14:05:19;;;;;;;1.40;1.40;;;6.90;99.90;;;;;;4915430;29;20210;-68
2022/04/03 14:07:46;;;;;;;1.90;1.90;;;6.70;99.90;;;;;;4930532;29;20266;-68
2022/04/03 14:10:13;;;;;;;1.27;1.25;;;6.40;99.90;;;;;;4933368;29;20351;-68
2022/04/03 14:12:39;;;;;;;1.20;1.20;;;6.30;99.90;;;;;;4933071;29;20276;-68
2022/04/03 14:15:08;;;;;;;3.00;2.20;;;6.30;99.90;;;;;;4933699;29;20241;-68
2022/04/03 14:17:36;;;;;;;2.30;2.30;;;6.40;99.90;;;;;;4919051;29;20206;-68
2022/04/03 14:20:04;;;;;;;5.15;2.00;;;6.60;99.90;;;;;;4914179;29;20309;-68
2022/04/03 14:22:31;;;;;;;2.05;1.95;;;6.80;99.90;;;;;;4914555;29;20238;-68
2022/04/03 14:24:57;;;;;;;6.82;1.85;;;6.90;99.90;;;;;;4914570;29;20277;-68
2022/04/03 14:27:25;;;;;;;1.52;1.52;;;7.00;99.90;;;;;;4926753;29;20206;-68
2022/04/03 14:29:52;;;;;;;2.95;2.85;;;7.10;99.90;;;;;;4933170;29;20213;-68
2022/04/03 14:32:18;;;;;;;2.00;2.00;;;7.10;99.90;;;;;;4933330;29;20234;-69
2022/04/03 14:34:46;;;;;;;4.07;3.75;;;7.10;99.90;;;;;;4926458;29;20277;-68
2022/04/03 14:37:14;;;;;;;3.67;3.38;;;7.00;99.90;;;;;;4941810;29;20538;-68
2022/04/03 14:39:42;;;;;;;3.22;2.92;;;7.00;99.90;;;;;;4937642;29;20694;-68
2022/04/03 14:42:09;;;;;;;2.05;1.95;;;6.90;99.90;;;;;;4930326;29;20288;-68
2022/04/03 14:44:35;;;;;;;2.05;1.95;;;6.90;99.90;;;;;;4932960;29;20209;-68
2022/04/03 14:47:05;;;;;;;1.90;1.90;;;6.90;99.90;;;;;;4933452;29;20214;-68
2022/04/03 14:49:32;;;;;;;3.28;1.33;;;7.00;99.90;;;;;;4931993;29;20206;-69
2022/04/03 14:52:01;;;;;;;1.90;1.90;;;7.10;99.90;;;;;;4935133;29;20249;-68
2022/04/03 14:54:28;;;;;;;1.70;1.70;;;7.20;99.90;;;;;;4933706;29;20214;-68
2022/04/03 14:56:54;;;;;;;2.85;2.75;;;7.30;99.90;;;;;;4932026;29;20242;-68
2022/04/03 14:59:21;;;;;;;3.90;2.38;;;7.40;99.90;;;;;;4933932;29;20245;-68
2022/04/03 15:01:50;;;;;;;2.05;1.20;;;7.50;99.90;;;;;;4923535;29;20329;-68
2022/04/03 15:04:17;;;;;;;1.10;1.10;;;7.60;99.90;;;;;;4913680;29;20214;-68
2022/04/03 15:06:44;;;;;;;1.58;1.27;;;7.60;99.90;;;;;;4914247;29;20257;-68
2022/04/03 15:09:12;;;;;;;1.70;1.60;;;7.70;99.90;;;;;;4922015;29;20304;-68
2022/04/03 15:11:39;;;;;;;2.17;0.55;;;7.80;99.90;;;;;;4932616;29;20206;-68
2022/04/03 15:14:05;;;;;;;0.77;0.77;;;7.90;99.90;;;;;;4932458;29;20221;-68
2022/04/03 15:16:32;;;;;;;1.00;1.00;;;7.80;99.90;;;;;;4929448;29;20210;-68
2022/04/03 15:18:59;;;;;;;0.95;0.95;;;7.90;99.90;;;;;;4944235;29;20206;-68
2022/04/03 15:21:25;;;;;;;1.35;1.25;;;7.90;99.90;;;;;;4932444;29;20698;-68
2022/04/03 15:23:53;;;;;;;1.27;1.15;;;7.90;99.90;;;;;;4934260;29;20288;-68
2022/04/03 15:26:21;;;;;;;1.02;1.00;;;7.90;99.90;;;;;;4944188;29;20220;-67
2022/04/03 15:28:48;;;;;;;1.33;1.23;;;7.90;99.90;;;;;;4952020;29;20264;-69
2022/04/03 15:31:18;;;;;;;1.17;1.17;;;7.90;99.90;;;;;;4947220;29;20265;-67
2022/04/03 15:33:44;;;;;;;0.65;0.65;;;8.00;99.90;;;;;;4931328;29;20324;-67
2022/04/03 15:36:12;;;;;;;0.80;0.80;;;8.00;99.90;;;;;;4925895;29;20218;-67
2022/04/03 15:38:40;;;;;;;0.85;0.70;;;8.00;99.90;;;;;;4934505;29;20268;-67
2022/04/03 15:41:08;;;;;;;0.88;0.55;;;8.00;99.90;;;;;;4940800;29;20681;-67
2022/04/03 15:43:36;;;;;;;1.48;1.48;;;8.00;99.90;;;;;;4934569;29;20631;-67
2022/04/03 15:46:03;;;;;;;2.20;2.00;;;8.00;99.90;;;;;;4936459;29;20620;-67
2022/04/03 15:48:30;;;;;;;2.78;2.20;;;8.10;99.90;;;;;;4940631;29;20662;-67
2022/04/03 15:50:57;;;;;;;2.30;2.20;;;8.10;99.90;;;;;;4937948;29;20206;-67
2022/04/03 15:53:24;;;;;;;1.77;1.75;;;8.10;99.90;;;;;;4925310;29;20281;-67
2022/04/03 15:55:53;;;;;;;2.20;1.50;;;8.10;99.90;;;;;;4932916;29;20214;-67
2022/04/03 15:58:19;;;;;;;2.95;2.95;;;8.00;99.90;;;;;;4924573;29;20244;-67
2022/04/03 16:00:48;;;;;;;1.88;1.85;;;8.10;99.90;;;;;;4937703;28;20230;-67
2022/04/03 16:03:15;;;;;;;1.80;1.80;;;8.10;99.90;;;;;;4932177;29;20234;-67
2022/04/03 16:05:41;;;;;;;3.13;1.80;;;8.10;99.90;;;;;;4939195;29;20256;-67
2022/04/03 16:08:08;;;;;;;2.22;2.13;;;8.10;99.90;;;;;;4935311;29;20213;-68
2022/04/03 16:10:35;;;;;;;2.30;1.85;;;8.10;99.90;;;;;;4919352;29;20249;-67
2022/04/03 16:13:04;;;;;;;1.95;1.80;;;8.00;99.90;;;;;;4933343;29;20257;-67
2022/04/03 16:15:32;;;;;;;1.60;1.60;;;7.90;99.90;;;;;;4933338;29;20237;-67
2022/04/03 16:18:00;;;;;;;4.47;2.58;;;7.80;99.90;;;;;;4916167;29;20676;-68
2022/04/03 16:20:27;;;;;;;2.65;1.75;;;7.80;99.90;;;;;;4916853;29;20317;-67
2022/04/03 16:22:54;;;;;;;2.35;2.22;;;7.80;99.90;;;;;;4932109;29;20241;-68
2022/04/03 16:25:21;;;;;;;3.25;2.30;;;7.80;99.90;;;;;;4916957;29;20285;-67
2022/04/03 16:27:48;;;;;;;1.75;1.67;;;7.70;99.90;;;;;;4924686;29;20281;-68
2022/04/03 16:30:15;;;;;;;3.55;1.25;;;7.70;99.90;;;;;;4930748;29;20213;-68
2022/04/03 16:32:43;;;;;;;2.40;2.20;;;7.70;99.90;;;;;;4921544;29;20594;-67
2022/04/03 16:35:12;;;;;;;1.42;1.33;;;7.80;99.90;;;;;;4931464;29;20317;-67
2022/04/03 16:37:42;;;;;;;2.25;1.70;;;7.80;99.90;;;;;;4934736;29;20202;-66
2022/04/03 16:40:10;;;;;;;1.75;1.67;;;7.70;99.90;;;;;;4934508;29;20227;-67
2022/04/03 16:42:37;;;;;;;1.95;1.95;;;7.80;99.90;;;;;;4928319;29;20259;-67
2022/04/03 16:45:04;;;;;;;4.90;3.15;;;7.80;99.90;;;;;;4931419;29;20209;-67
2022/04/03 16:47:32;;;;;;;4.13;4.03;;;7.80;99.90;;;;;;4926387;29;20225;-67
2022/04/03 16:49:59;;;;;;;3.47;3.38;;;7.70;99.90;;;;;;4922329;29;20213;-67
2022/04/03 16:52:27;;;;;;;2.83;2.38;;;7.70;99.90;;;;;;4939609;29;20285;-68
2022/04/03 16:54:54;;;;;;;1.75;1.65;;;7.60;99.90;;;;;;4935760;28;20211;-67
2022/04/03 16:57:20;;;;;;;1.35;1.30;;;7.60;99.90;;;;;;4941030;29;20266;-67
2022/04/03 16:59:48;;;;;;;1.05;1.05;;;7.50;99.90;;;;;;4918068;28;20281;-67
2022/04/03 17:02:15;;;;;;;1.77;0.55;;;7.50;99.90;;;;;;4922520;29;20233;-67
2022/04/03 17:04:42;;;;;;;1.75;1.52;;;7.50;99.90;;;;;;4924442;29;20217;-67
2022/04/03 17:07:09;;;;;;;1.10;1.10;;;7.50;99.90;;;;;;4924392;29;20207;-67